sensor_id;sensor_type;location;lat;lon;timestamp;pressure;altitude;pressure_sealevel;temperature;humidity
21111;BME280;10713;51.912;4.494;2022-08-14T00:01:35;101106.50;;;24.62;77.07
21111;BME280;10713;51.912;4.494;2022-08-14T00:04:01;101105.78;;;24.60;77.13
21111;BME280;10713;51.912;4.494;2022-08-14T00:06:26;101102.53;;;24.56;77.70
21111;BME280;10713;51.912;4.494;2022-08-14T00:08:52;101098.13;;;24.55;77.80
21111;BME280;10713;51.912;4.494;2022-08-14T00:11:17;101087.59;;;24.52;78.89
21111;BME280;10713;51.912;4.494;2022-08-14T00:13:43;101091.47;;;24.49;79.40
21111;BME280;10713;51.912;4.494;2022-08-14T00:16:08;101091.06;;;24.44;80.94
21111;BME280;10713;51.912;4.494;2022-08-14T00:18:39;101082.34;;;24.41;82.69
21111;BME280;10713;51.912;4.494;2022-08-14T00:21:05;101085.03;;;24.41;82.84
21111;BME280;10713;51.912;4.494;2022-08-14T00:23:30;101079.25;;;24.36;83.86
21111;BME280;10713;51.912;4.494;2022-08-14T00:25:56;101063.06;;;24.36;83.97
21111;BME280;10713;51.912;4.494;2022-08-14T00:28:22;101070.56;;;24.32;84.59
21111;BME280;10713;51.912;4.494;2022-08-14T00:30:54;101069.88;;;24.30;84.74
21111;BME280;10713;51.912;4.494;2022-08-14T00:33:25;101075.41;;;24.28;84.64
21111;BME280;10713;51.912;4.494;2022-08-14T00:35:51;101064.78;;;24.27;84.27
21111;BME280;10713;51.912;4.494;2022-08-14T00:38:18;101058.66;;;24.25;84.76
21111;BME280;10713;51.912;4.494;2022-08-14T00:40:44;101055.25;;;24.23;84.48
21111;BME280;10713;51.912;4.494;2022-08-14T00:43:09;101057.25;;;24.21;84.55
21111;BME280;10713;51.912;4.494;2022-08-14T00:45:36;101053.00;;;24.18;84.95
21111;BME280;10713;51.912;4.494;2022-08-14T00:48:02;101048.75;;;24.16;84.82
21111;BME280;10713;51.912;4.494;2022-08-14T00:50:28;101054.28;;;24.14;84.81
21111;BME280;10713;51.912;4.494;2022-08-14T00:52:55;101059.53;;;24.16;84.73
21111;BME280;10713;51.912;4.494;2022-08-14T00:55:21;101054.97;;;24.16;84.83
21111;BME280;10713;51.912;4.494;2022-08-14T00:57:48;101038.94;;;24.15;85.93
21111;BME280;10713;51.912;4.494;2022-08-14T01:00:36;101038.09;;;24.14;85.53
21111;BME280;10713;51.912;4.494;2022-08-14T01:03:04;101033.69;;;24.13;85.62
21111;BME280;10713;51.912;4.494;2022-08-14T01:05:29;101041.06;;;24.11;86.37
21111;BME280;10713;51.912;4.494;2022-08-14T01:07:55;101031.41;;;24.09;87.37
21111;BME280;10713;51.912;4.494;2022-08-14T01:10:26;101032.25;;;24.09;87.41
21111;BME280;10713;51.912;4.494;2022-08-14T01:13:11;101029.00;;;24.05;87.92
21111;BME280;10713;51.912;4.494;2022-08-14T01:15:41;101033.84;;;24.02;88.76
21111;BME280;10713;51.912;4.494;2022-08-14T01:18:06;101032.41;;;23.98;89.75
21111;BME280;10713;51.912;4.494;2022-08-14T01:20:50;101035.41;;;23.95;89.85
21111;BME280;10713;51.912;4.494;2022-08-14T01:23:31;101029.59;;;23.90;90.43
21111;BME280;10713;51.912;4.494;2022-08-14T01:25:57;101029.00;;;23.86;90.86
21111;BME280;10713;51.912;4.494;2022-08-14T01:28:23;101021.38;;;23.81;92.09
21111;BME280;10713;51.912;4.494;2022-08-14T01:30:51;101029.59;;;23.80;93.02
21111;BME280;10713;51.912;4.494;2022-08-14T01:33:21;101015.53;;;23.76;93.16
21111;BME280;10713;51.912;4.494;2022-08-14T01:35:46;101016.84;;;23.72;94.17
21111;BME280;10713;51.912;4.494;2022-08-14T01:38:12;101011.66;;;23.69;94.67
21111;BME280;10713;51.912;4.494;2022-08-14T01:40:39;101006.84;;;23.63;95.80
21111;BME280;10713;51.912;4.494;2022-08-14T01:43:12;101016.78;;;23.63;98.56
21111;BME280;10713;51.912;4.494;2022-08-14T01:45:42;101018.91;;;23.59;96.87
21111;BME280;10713;51.912;4.494;2022-08-14T01:48:09;101008.25;;;23.57;97.25
21111;BME280;10713;51.912;4.494;2022-08-14T01:50:35;101011.13;;;23.56;97.35
21111;BME280;10713;51.912;4.494;2022-08-14T01:53:01;101009.25;;;23.56;97.57
21111;BME280;10713;51.912;4.494;2022-08-14T01:55:27;101000.75;;;23.51;98.17
21111;BME280;10713;51.912;4.494;2022-08-14T01:57:57;101002.03;;;23.47;99.34
21111;BME280;10713;51.912;4.494;2022-08-14T02:00:23;100996.06;;;23.44;100.00
21111;BME280;10713;51.912;4.494;2022-08-14T02:02:49;101000.75;;;23.42;100.00
21111;BME280;10713;51.912;4.494;2022-08-14T02:05:14;100991.09;;;23.39;100.00
21111;BME280;10713;51.912;4.494;2022-08-14T02:07:41;100986.84;;;23.36;100.00
21111;BME280;10713;51.912;4.494;2022-08-14T02:10:10;100988.97;;;23.33;100.00
21111;BME280;10713;51.912;4.494;2022-08-14T02:12:36;100989.09;;;23.31;100.00
21111;BME280;10713;51.912;4.494;2022-08-14T02:15:04;100982.41;;;23.26;100.00
21111;BME280;10713;51.912;4.494;2022-08-14T02:17:32;100978.44;;;23.20;100.00
21111;BME280;10713;51.912;4.494;2022-08-14T02:19:58;100980.97;;;23.12;100.00
21111;BME280;10713;51.912;4.494;2022-08-14T02:22:23;100969.63;;;23.08;100.00
21111;BME280;10713;51.912;4.494;2022-08-14T02:24:50;100968.63;;;23.00;100.00
21111;BME280;10713;51.912;4.494;2022-08-14T02:27:15;100973.53;;;22.94;100.00
21111;BME280;10713;51.912;4.494;2022-08-14T02:29:43;100980.31;;;22.89;100.00
21111;BME280;10713;51.912;4.494;2022-08-14T02:32:08;100977.31;;;22.82;100.00
21111;BME280;10713;51.912;4.494;2022-08-14T02:34:35;100967.94;;;22.77;100.00
21111;BME280;10713;51.912;4.494;2022-08-14T02:37:06;100970.34;;;22.70;100.00
21111;BME280;10713;51.912;4.494;2022-08-14T02:39:39;100966.19;;;22.66;100.00
21111;BME280;10713;51.912;4.494;2022-08-14T02:42:08;100967.31;;;22.63;100.00
21111;BME280;10713;51.912;4.494;2022-08-14T02:44:33;100971.44;;;22.58;100.00
21111;BME280;10713;51.912;4.494;2022-08-14T02:46:59;100962.63;;;22.56;100.00
21111;BME280;10713;51.912;4.494;2022-08-14T02:49:25;100960.34;;;22.51;100.00
21111;BME280;10713;51.912;4.494;2022-08-14T02:51:55;100957.81;;;22.49;100.00
21111;BME280;10713;51.912;4.494;2022-08-14T02:54:20;100963.56;;;22.45;100.00
21111;BME280;10713;51.912;4.494;2022-08-14T02:56:48;100956.50;;;22.44;100.00
21111;BME280;10713;51.912;4.494;2022-08-14T02:59:15;100948.81;;;22.39;100.00
21111;BME280;10713;51.912;4.494;2022-08-14T03:01:41;100951.78;;;22.36;100.00
21111;BME280;10713;51.912;4.494;2022-08-14T03:04:06;100948.38;;;22.34;100.00
21111;BME280;10713;51.912;4.494;2022-08-14T03:06:35;100951.47;;;22.30;100.00
21111;BME280;10713;51.912;4.494;2022-08-14T03:09:03;100952.00;;;22.23;100.00
21111;BME280;10713;51.912;4.494;2022-08-14T03:11:29;100948.88;;;22.18;100.00
21111;BME280;10713;51.912;4.494;2022-08-14T03:13:55;100956.56;;;22.12;100.00
21111;BME280;10713;51.912;4.494;2022-08-14T03:16:23;100954.84;;;22.11;100.00
21111;BME280;10713;51.912;4.494;2022-08-14T03:18:51;100947.19;;;22.06;100.00
21111;BME280;10713;51.912;4.494;2022-08-14T03:21:24;100954.94;;;21.99;100.00
21111;BME280;10713;51.912;4.494;2022-08-14T03:23:52;100952.50;;;21.96;100.00
21111;BME280;10713;51.912;4.494;2022-08-14T03:26:31;100947.66;;;21.90;100.00
21111;BME280;10713;51.912;4.494;2022-08-14T03:28:56;100952.31;;;21.88;100.00
21111;BME280;10713;51.912;4.494;2022-08-14T03:31:22;100941.81;;;21.85;100.00
21111;BME280;10713;51.912;4.494;2022-08-14T03:33:49;100943.06;;;21.81;100.00
21111;BME280;10713;51.912;4.494;2022-08-14T03:36:16;100930.59;;;21.80;100.00
21111;BME280;10713;51.912;4.494;2022-08-14T03:38:43;100938.66;;;21.80;100.00
21111;BME280;10713;51.912;4.494;2022-08-14T03:41:10;100933.56;;;21.77;100.00
21111;BME280;10713;51.912;4.494;2022-08-14T03:43:40;100936.66;;;21.72;100.00
21111;BME280;10713;51.912;4.494;2022-08-14T03:46:05;100939.44;;;21.71;100.00
21111;BME280;10713;51.912;4.494;2022-08-14T03:48:31;100938.00;;;21.67;100.00
21111;BME280;10713;51.912;4.494;2022-08-14T03:50:56;100932.03;;;21.63;100.00
21111;BME280;10713;51.912;4.494;2022-08-14T03:53:21;100936.56;;;21.63;100.00
21111;BME280;10713;51.912;4.494;2022-08-14T03:55:47;100926.81;;;21.62;100.00
21111;BME280;10713;51.912;4.494;2022-08-14T03:58:13;100923.28;;;21.61;100.00
21111;BME280;10713;51.912;4.494;2022-08-14T04:00:40;100930.59;;;21.59;100.00
21111;BME280;10713;51.912;4.494;2022-08-14T04:03:08;100929.59;;;21.60;100.00
21111;BME280;10713;51.912;4.494;2022-08-14T04:05:35;100932.44;;;21.58;100.00
21111;BME280;10713;51.912;4.494;2022-08-14T04:08:04;100928.16;;;21.56;100.00
21111;BME280;10713;51.912;4.494;2022-08-14T04:10:30;100922.22;;;21.52;100.00
21111;BME280;10713;51.912;4.494;2022-08-14T04:12:55;100923.44;;;21.48;100.00
21111;BME280;10713;51.912;4.494;2022-08-14T04:15:24;100922.97;;;21.43;100.00
21111;BME280;10713;51.912;4.494;2022-08-14T04:17:51;100924.09;;;21.41;100.00
21111;BME280;10713;51.912;4.494;2022-08-14T04:20:17;100931.53;;;21.37;100.00
21111;BME280;10713;51.912;4.494;2022-08-14T04:22:42;100925.44;;;21.35;100.00
21111;BME280;10713;51.912;4.494;2022-08-14T04:25:10;100927.38;;;21.33;100.00
21111;BME280;10713;51.912;4.494;2022-08-14T04:27:36;100924.81;;;21.31;100.00
21111;BME280;10713;51.912;4.494;2022-08-14T04:30:03;100919.44;;;21.31;100.00
21111;BME280;10713;51.912;4.494;2022-08-14T04:32:30;100918.00;;;21.27;100.00
21111;BME280;10713;51.912;4.494;2022-08-14T04:34:58;100919.09;;;21.25;100.00
21111;BME280;10713;51.912;4.494;2022-08-14T04:37:24;100913.16;;;21.21;100.00
21111;BME280;10713;51.912;4.494;2022-08-14T04:40:09;100917.41;;;21.24;100.00
21111;BME280;10713;51.912;4.494;2022-08-14T04:42:54;100909.81;;;21.29;100.00
21111;BME280;10713;51.912;4.494;2022-08-14T04:45:38;100903.47;;;21.30;100.00
21111;BME280;10713;51.912;4.494;2022-08-14T04:48:09;100907.59;;;21.34;100.00
21111;BME280;10713;51.912;4.494;2022-08-14T04:50:51;100903.72;;;21.38;100.00
21111;BME280;10713;51.912;4.494;2022-08-14T04:53:19;100906.53;;;21.36;100.00
21111;BME280;10713;51.912;4.494;2022-08-14T04:55:46;100906.41;;;21.38;100.00
21111;BME280;10713;51.912;4.494;2022-08-14T04:58:24;100900.78;;;21.41;100.00
21111;BME280;10713;51.912;4.494;2022-08-14T05:00:50;100902.94;;;21.47;100.00
21111;BME280;10713;51.912;4.494;2022-08-14T05:03:21;100886.97;;;21.67;100.00
21111;BME280;10713;51.912;4.494;2022-08-14T05:05:48;100886.66;;;21.81;100.00
21111;BME280;10713;51.912;4.494;2022-08-14T05:08:14;100884.38;;;21.86;100.00
21111;BME280;10713;51.912;4.494;2022-08-14T05:10:43;100894.28;;;21.86;100.00
21111;BME280;10713;51.912;4.494;2022-08-14T05:13:09;100888.59;;;21.79;100.00
21111;BME280;10713;51.912;4.494;2022-08-14T05:15:36;100888.28;;;21.72;100.00
21111;BME280;10713;51.912;4.494;2022-08-14T05:18:22;100884.03;;;21.70;100.00
21111;BME280;10713;51.912;4.494;2022-08-14T05:20:51;100882.19;;;21.70;100.00
21111;BME280;10713;51.912;4.494;2022-08-14T05:23:19;100880.34;;;21.71;100.00
21111;BME280;10713;51.912;4.494;2022-08-14T05:25:47;100879.13;;;21.75;100.00
21111;BME280;10713;51.912;4.494;2022-08-14T05:28:17;100878.69;;;21.79;100.00
21111;BME280;10713;51.912;4.494;2022-08-14T05:30:50;100879.75;;;21.88;100.00
21111;BME280;10713;51.912;4.494;2022-08-14T05:33:17;100870.78;;;22.09;100.00
21111;BME280;10713;51.912;4.494;2022-08-14T05:35:44;100868.16;;;22.49;100.00
21111;BME280;10713;51.912;4.494;2022-08-14T05:38:12;100870.16;;;23.46;100.00
21111;BME280;10713;51.912;4.494;2022-08-14T05:40:39;100861.56;;;24.36;100.00
21111;BME280;10713;51.912;4.494;2022-08-14T05:43:05;100865.28;;;25.08;100.00
21111;BME280;10713;51.912;4.494;2022-08-14T05:45:31;100868.56;;;25.74;100.00
21111;BME280;10713;51.912;4.494;2022-08-14T05:47:56;100868.44;;;26.10;100.00
21111;BME280;10713;51.912;4.494;2022-08-14T05:50:21;100867.25;;;26.38;100.00
21111;BME280;10713;51.912;4.494;2022-08-14T05:52:48;100860.94;;;26.64;100.00
21111;BME280;10713;51.912;4.494;2022-08-14T05:55:14;100874.72;;;26.95;100.00
21111;BME280;10713;51.912;4.494;2022-08-14T05:57:58;100868.53;;;27.35;93.05
21111;BME280;10713;51.912;4.494;2022-08-14T06:00:29;100871.91;;;27.95;88.63
21111;BME280;10713;51.912;4.494;2022-08-14T06:02:57;100873.53;;;28.28;82.05
21111;BME280;10713;51.912;4.494;2022-08-14T06:05:23;100873.41;;;28.61;78.27
21111;BME280;10713;51.912;4.494;2022-08-14T06:07:48;100867.41;;;29.05;72.25
21111;BME280;10713;51.912;4.494;2022-08-14T06:10:14;100865.63;;;29.35;67.05
21111;BME280;10713;51.912;4.494;2022-08-14T06:12:40;100868.31;;;29.21;64.36
21111;BME280;10713;51.912;4.494;2022-08-14T06:15:07;100864.41;;;29.61;63.04
21111;BME280;10713;51.912;4.494;2022-08-14T06:17:48;100873.28;;;29.93;58.11
21111;BME280;10713;51.912;4.494;2022-08-14T06:20:14;100856.25;;;30.43;57.12
21111;BME280;10713;51.912;4.494;2022-08-14T06:22:41;100854.31;;;30.73;54.92
21111;BME280;10713;51.912;4.494;2022-08-14T06:25:08;100853.50;;;30.94;52.78
21111;BME280;10713;51.912;4.494;2022-08-14T06:27:38;100867.31;;;30.93;51.42
21111;BME280;10713;51.912;4.494;2022-08-14T06:30:06;100872.28;;;30.68;51.57
21111;BME280;10713;51.912;4.494;2022-08-14T06:32:31;100866.69;;;30.91;50.94
21111;BME280;10713;51.912;4.494;2022-08-14T06:34:57;100863.94;;;30.76;50.39
21111;BME280;10713;51.912;4.494;2022-08-14T06:37:22;100859.75;;;30.73;51.09
21111;BME280;10713;51.912;4.494;2022-08-14T06:39:48;100857.84;;;30.89;50.05
21111;BME280;10713;51.912;4.494;2022-08-14T06:42:13;100855.63;;;30.99;50.21
21111;BME280;10713;51.912;4.494;2022-08-14T06:44:38;100853.72;;;31.14;49.40
21111;BME280;10713;51.912;4.494;2022-08-14T06:47:05;100855.09;;;31.47;48.51
21111;BME280;10713;51.912;4.494;2022-08-14T06:49:30;100849.19;;;31.71;48.13
21111;BME280;10713;51.912;4.494;2022-08-14T06:51:56;100855.13;;;31.81;48.03
21111;BME280;10713;51.912;4.494;2022-08-14T06:54:21;100853.91;;;32.19;47.37
21111;BME280;10713;51.912;4.494;2022-08-14T06:56:47;100844.63;;;32.48;45.46
21111;BME280;10713;51.912;4.494;2022-08-14T06:59:14;100851.22;;;32.73;43.64
21111;BME280;10713;51.912;4.494;2022-08-14T07:01:39;100842.47;;;32.98;43.58
21111;BME280;10713;51.912;4.494;2022-08-14T07:04:23;100842.94;;;33.15;42.67
21111;BME280;10713;51.912;4.494;2022-08-14T07:07:08;100838.75;;;33.26;42.31
21111;BME280;10713;51.912;4.494;2022-08-14T07:09:33;100834.53;;;33.43;42.61
21111;BME280;10713;51.912;4.494;2022-08-14T07:11:59;100833.69;;;33.49;41.61
21111;BME280;10713;51.912;4.494;2022-08-14T07:14:25;100831.38;;;33.19;40.86
21111;BME280;10713;51.912;4.494;2022-08-14T07:16:51;100834.31;;;33.11;40.97
21111;BME280;10713;51.912;4.494;2022-08-14T07:19:17;100831.56;;;33.25;40.11
21111;BME280;10713;51.912;4.494;2022-08-14T07:21:42;100843.34;;;33.45;40.11
21111;BME280;10713;51.912;4.494;2022-08-14T07:24:08;100836.69;;;33.54;39.99
21111;BME280;10713;51.912;4.494;2022-08-14T07:26:33;100837.91;;;33.72;39.51
21111;BME280;10713;51.912;4.494;2022-08-14T07:28:58;100838.28;;;33.95;38.90
21111;BME280;10713;51.912;4.494;2022-08-14T07:31:24;100843.13;;;34.00;39.35
21111;BME280;10713;51.912;4.494;2022-08-14T07:33:49;100831.28;;;34.26;38.44
21111;BME280;10713;51.912;4.494;2022-08-14T07:36:16;100838.38;;;34.34;37.12
21111;BME280;10713;51.912;4.494;2022-08-14T07:38:41;100844.41;;;34.04;37.11
21111;BME280;10713;51.912;4.494;2022-08-14T07:41:08;100845.03;;;33.93;38.00
21111;BME280;10713;51.912;4.494;2022-08-14T07:43:35;100839.69;;;34.24;37.61
21111;BME280;10713;51.912;4.494;2022-08-14T07:46:02;100841.13;;;34.34;38.27
21111;BME280;10713;51.912;4.494;2022-08-14T07:48:27;100833.00;;;34.65;37.36
21111;BME280;10713;51.912;4.494;2022-08-14T07:50:54;100835.53;;;34.98;36.95
21111;BME280;10713;51.912;4.494;2022-08-14T07:53:19;100831.50;;;35.08;36.19
21111;BME280;10713;51.912;4.494;2022-08-14T07:55:46;100826.88;;;35.02;36.00
21111;BME280;10713;51.912;4.494;2022-08-14T07:58:12;100818.34;;;35.16;36.21
21111;BME280;10713;51.912;4.494;2022-08-14T08:00:38;100821.38;;;35.33;35.47
21111;BME280;10713;51.912;4.494;2022-08-14T08:03:06;100816.41;;;35.49;35.19
21111;BME280;10713;51.912;4.494;2022-08-14T08:05:35;100818.44;;;35.60;34.90
21111;BME280;10713;51.912;4.494;2022-08-14T08:08:03;100821.34;;;36.02;34.75
21111;BME280;10713;51.912;4.494;2022-08-14T08:10:28;100820.28;;;36.40;34.56
21111;BME280;10713;51.912;4.494;2022-08-14T08:13:07;100814.19;;;36.86;34.34
21111;BME280;10713;51.912;4.494;2022-08-14T08:15:38;100815.09;;;37.10;33.73
21111;BME280;10713;51.912;4.494;2022-08-14T08:18:05;100819.00;;;37.03;33.66
21111;BME280;10713;51.912;4.494;2022-08-14T08:20:36;100821.75;;;37.03;33.45
21111;BME280;10713;51.912;4.494;2022-08-14T08:23:03;100809.09;;;37.13;33.34
21111;BME280;10713;51.912;4.494;2022-08-14T08:25:31;100810.69;;;37.33;33.13
21111;BME280;10713;51.912;4.494;2022-08-14T08:28:14;100816.81;;;37.23;33.23
21111;BME280;10713;51.912;4.494;2022-08-14T08:30:45;100801.13;;;37.47;32.57
21111;BME280;10713;51.912;4.494;2022-08-14T08:33:11;100791.31;;;37.63;32.39
21111;BME280;10713;51.912;4.494;2022-08-14T08:35:37;100793.09;;;37.34;32.97
21111;BME280;10713;51.912;4.494;2022-08-14T08:38:08;100791.44;;;37.45;32.33
21111;BME280;10713;51.912;4.494;2022-08-14T08:40:39;100788.44;;;37.46;31.94
21111;BME280;10713;51.912;4.494;2022-08-14T08:43:08;100785.47;;;37.59;32.46
21111;BME280;10713;51.912;4.494;2022-08-14T08:45:40;100789.50;;;37.69;31.96
21111;BME280;10713;51.912;4.494;2022-08-14T08:48:06;100787.13;;;37.96;31.83
21111;BME280;10713;51.912;4.494;2022-08-14T08:50:34;100795.75;;;37.76;31.35
21111;BME280;10713;51.912;4.494;2022-08-14T08:53:06;100787.38;;;37.35;31.95
21111;BME280;10713;51.912;4.494;2022-08-14T08:55:37;100785.69;;;37.46;31.46
21111;BME280;10713;51.912;4.494;2022-08-14T08:58:08;100782.34;;;37.56;31.34
21111;BME280;10713;51.912;4.494;2022-08-14T09:00:35;100786.28;;;37.72;31.41
21111;BME280;10713;51.912;4.494;2022-08-14T09:03:08;100774.31;;;38.30;30.81
21111;BME280;10713;51.912;4.494;2022-08-14T09:05:36;100768.53;;;38.43;30.44
21111;BME280;10713;51.912;4.494;2022-08-14T09:08:16;100774.38;;;38.18;30.23
21111;BME280;10713;51.912;4.494;2022-08-14T09:10:42;100775.69;;;38.16;30.36
21111;BME280;10713;51.912;4.494;2022-08-14T09:13:08;100774.22;;;38.25;30.07
21111;BME280;10713;51.912;4.494;2022-08-14T09:15:38;100768.59;;;38.20;29.68
21111;BME280;10713;51.912;4.494;2022-08-14T09:18:04;100767.53;;;38.21;29.93
21111;BME280;10713;51.912;4.494;2022-08-14T09:20:30;100772.09;;;38.15;29.65
21111;BME280;10713;51.912;4.494;2022-08-14T09:22:57;100767.16;;;38.17;29.77
21111;BME280;10713;51.912;4.494;2022-08-14T09:25:23;100764.28;;;38.24;29.40
21111;BME280;10713;51.912;4.494;2022-08-14T09:27:48;100764.06;;;38.14;29.90
21111;BME280;10713;51.912;4.494;2022-08-14T09:30:14;100764.56;;;38.39;29.57
21111;BME280;10713;51.912;4.494;2022-08-14T09:38:10;100750.97;;;37.69;29.47
21111;BME280;10713;51.912;4.494;2022-08-14T09:44:04;100745.56;;;37.74;29.13
21111;BME280;10713;51.912;4.494;2022-08-14T09:46:31;100747.72;;;37.83;28.67
21111;BME280;10713;51.912;4.494;2022-08-14T09:49:01;100743.56;;;37.69;29.05
21111;BME280;10713;51.912;4.494;2022-08-14T09:51:28;100744.78;;;37.50;29.35
21111;BME280;10713;51.912;4.494;2022-08-14T09:54:06;100741.28;;;37.31;28.89
21111;BME280;10713;51.912;4.494;2022-08-14T09:56:46;100726.81;;;37.59;28.91
21111;BME280;10713;51.912;4.494;2022-08-14T09:59:14;100730.03;;;37.32;29.07
21111;BME280;10713;51.912;4.494;2022-08-14T10:01:42;100730.50;;;37.06;29.46
21111;BME280;10713;51.912;4.494;2022-08-14T10:06:44;100703.94;;;37.47;29.20
21111;BME280;10713;51.912;4.494;2022-08-14T10:09:10;100710.91;;;37.37;28.92
21111;BME280;10713;51.912;4.494;2022-08-14T10:11:37;100718.78;;;37.10;29.13
21111;BME280;10713;51.912;4.494;2022-08-14T10:14:14;100708.72;;;37.28;28.84
21111;BME280;10713;51.912;4.494;2022-08-14T10:16:45;100712.84;;;37.89;28.40
21111;BME280;10713;51.912;4.494;2022-08-14T10:19:13;100704.41;;;38.07;28.47
21111;BME280;10713;51.912;4.494;2022-08-14T10:21:41;100701.00;;;37.77;28.71
21111;BME280;10713;51.912;4.494;2022-08-14T10:24:10;100707.00;;;37.74;28.58
21111;BME280;10713;51.912;4.494;2022-08-14T10:26:37;100706.06;;;37.68;28.57
21111;BME280;10713;51.912;4.494;2022-08-14T10:29:09;100701.78;;;37.37;28.80
21111;BME280;10713;51.912;4.494;2022-08-14T10:31:37;100696.91;;;37.15;29.04
21111;BME280;10713;51.912;4.494;2022-08-14T10:34:09;100697.13;;;37.02;29.35
21111;BME280;10713;51.912;4.494;2022-08-14T10:36:39;100694.81;;;36.75;29.35
21111;BME280;10713;51.912;4.494;2022-08-14T10:39:15;100688.59;;;36.38;29.41
21111;BME280;10713;51.912;4.494;2022-08-14T10:41:42;100688.59;;;36.08;29.27
21111;BME280;10713;51.912;4.494;2022-08-14T10:47:06;100690.88;;;36.11;29.11
21111;BME280;10713;51.912;4.494;2022-08-14T10:49:34;100688.84;;;35.88;29.36
21111;BME280;10713;51.912;4.494;2022-08-14T10:52:08;100694.41;;;35.81;29.56
21111;BME280;10713;51.912;4.494;2022-08-14T10:57:22;100687.72;;;35.77;30.31
21111;BME280;10713;51.912;4.494;2022-08-14T10:59:56;100686.41;;;35.80;30.75
21111;BME280;10713;51.912;4.494;2022-08-14T11:02:24;100691.69;;;35.63;30.13
21111;BME280;10713;51.912;4.494;2022-08-14T11:05:16;100676.63;;;35.47;32.10
21111;BME280;10713;51.912;4.494;2022-08-14T11:10:22;100670.44;;;35.33;32.81
21111;BME280;10713;51.912;4.494;2022-08-14T11:12:50;100680.69;;;35.26;32.35
21111;BME280;10713;51.912;4.494;2022-08-14T11:15:18;100685.06;;;35.09;32.24
21111;BME280;10713;51.912;4.494;2022-08-14T11:17:44;100671.78;;;34.81;32.92
21111;BME280;10713;51.912;4.494;2022-08-14T11:20:12;100671.22;;;34.72;32.18
21111;BME280;10713;51.912;4.494;2022-08-14T11:22:39;100687.88;;;34.70;31.85
21111;BME280;10713;51.912;4.494;2022-08-14T11:25:06;100693.63;;;34.62;32.99
21111;BME280;10713;51.912;4.494;2022-08-14T11:27:33;100681.50;;;34.45;32.15
21111;BME280;10713;51.912;4.494;2022-08-14T11:30:09;100674.44;;;34.30;31.82
21111;BME280;10713;51.912;4.494;2022-08-14T11:32:34;100678.13;;;34.18;32.25
21111;BME280;10713;51.912;4.494;2022-08-14T11:35:00;100669.72;;;34.13;32.66
21111;BME280;10713;51.912;4.494;2022-08-14T11:37:30;100674.56;;;34.11;33.42
21111;BME280;10713;51.912;4.494;2022-08-14T11:40:00;100670.63;;;33.93;33.69
21111;BME280;10713;51.912;4.494;2022-08-14T11:42:27;100663.09;;;33.89;33.92
21111;BME280;10713;51.912;4.494;2022-08-14T11:44:56;100664.34;;;33.86;34.03
21111;BME280;10713;51.912;4.494;2022-08-14T11:47:23;100657.25;;;33.65;34.58
21111;BME280;10713;51.912;4.494;2022-08-14T11:49:48;100656.66;;;33.50;33.93
21111;BME280;10713;51.912;4.494;2022-08-14T11:52:15;100657.78;;;33.29;34.17
21111;BME280;10713;51.912;4.494;2022-08-14T11:54:42;100650.25;;;33.04;35.02
21111;BME280;10713;51.912;4.494;2022-08-14T11:57:17;100639.75;;;33.01;35.69
21111;BME280;10713;51.912;4.494;2022-08-14T11:59:44;100632.56;;;32.93;35.23
21111;BME280;10713;51.912;4.494;2022-08-14T12:02:13;100632.78;;;32.98;35.38
21111;BME280;10713;51.912;4.494;2022-08-14T12:04:52;100622.06;;;33.04;35.18
21111;BME280;10713;51.912;4.494;2022-08-14T12:07:19;100629.22;;;32.85;34.20
21111;BME280;10713;51.912;4.494;2022-08-14T12:09:46;100623.56;;;32.66;33.70
21111;BME280;10713;51.912;4.494;2022-08-14T12:12:18;100635.53;;;32.52;33.59
21111;BME280;10713;51.912;4.494;2022-08-14T12:14:51;100622.94;;;32.51;32.80
21111;BME280;10713;51.912;4.494;2022-08-14T12:17:22;100609.91;;;32.60;33.11
21111;BME280;10713;51.912;4.494;2022-08-14T12:19:56;100600.41;;;32.62;33.51
21111;BME280;10713;51.912;4.494;2022-08-14T12:25:04;100600.88;;;32.46;32.64
21111;BME280;10713;51.912;4.494;2022-08-14T12:27:46;100598.97;;;32.53;32.70
21111;BME280;10713;51.912;4.494;2022-08-14T12:32:58;100603.75;;;32.44;32.70
21111;BME280;10713;51.912;4.494;2022-08-14T12:35:40;100589.06;;;32.25;31.74
21111;BME280;10713;51.912;4.494;2022-08-14T12:38:07;100593.44;;;32.13;31.44
21111;BME280;10713;51.912;4.494;2022-08-14T12:40:47;100590.09;;;32.11;32.04
21111;BME280;10713;51.912;4.494;2022-08-14T12:43:14;100601.44;;;32.15;31.07
21111;BME280;10713;51.912;4.494;2022-08-14T12:45:45;100592.19;;;32.09;31.48
21111;BME280;10713;51.912;4.494;2022-08-14T12:48:14;100590.94;;;32.12;31.24
21111;BME280;10713;51.912;4.494;2022-08-14T12:50:41;100584.22;;;32.27;30.87
21111;BME280;10713;51.912;4.494;2022-08-14T12:53:10;100580.44;;;32.35;31.14
21111;BME280;10713;51.912;4.494;2022-08-14T12:55:38;100588.00;;;32.33;31.22
21111;BME280;10713;51.912;4.494;2022-08-14T12:58:04;100583.38;;;32.34;30.78
21111;BME280;10713;51.912;4.494;2022-08-14T13:00:36;100577.06;;;32.26;30.66
21111;BME280;10713;51.912;4.494;2022-08-14T13:03:03;100569.50;;;32.22;30.28
21111;BME280;10713;51.912;4.494;2022-08-14T13:05:32;100569.50;;;32.35;30.83
21111;BME280;10713;51.912;4.494;2022-08-14T13:08:01;100561.94;;;32.44;30.74
21111;BME280;10713;51.912;4.494;2022-08-14T13:10:31;100561.31;;;32.42;31.05
21111;BME280;10713;51.912;4.494;2022-08-14T13:12:56;100561.75;;;32.32;31.56
21111;BME280;10713;51.912;4.494;2022-08-14T13:15:22;100556.91;;;32.21;31.36
21111;BME280;10713;51.912;4.494;2022-08-14T13:17:49;100558.34;;;32.10;31.90
21111;BME280;10713;51.912;4.494;2022-08-14T13:20:17;100556.28;;;32.12;31.69